KSAF/SAF METAR and TAF weather

Enter ICAO airport designator
Station Type Date Time Source
KSAF METAR 2019/02/20 22:53 UTC NOAA

KSAF 202253Z 24012G20KT 10SM CLR 01/M13 A2975 RMK AO2 SLP085 T00061128


Station Type Date Time Source
KSAF Decoded METAR 2019/02/20 22:53 UTC NOAA

SANTA FE COUNTY MUNICIPAL, NM, United States (KSAF) 35-37N 106-05W 1930M
Feb 20, 2019 - 05:53 PM EST / 2019.02.20 2253 UTC
Wind: from the WSW (240 degrees) at 14 MPH (12 KT) gusting to 23 MPH (20 KT):0
Visibility: 10 mile(s):0
Sky conditions: clear
Temperature: 33.1 F (0.6 C)
Windchill: 23 F (-5 C):1
Dew Point: 9.0 F (-12.8 C)
Relative Humidity: 35%
Pressure (altimeter): 29.75 in. Hg (1007 hPa)
ob: KSAF 202253Z 24012G20KT 10SM CLR 01/M13 A2975 RMK AO2 SLP085 T00061128
cycle: 23

Station Type Date Time Source
KSAF TAF 2019/02/20 18:30 UTC NOAA

TAF KSAF 201727Z 2018/2118 28015G25KT P6SM SCT100
FM210200 14009KT P6SM SCT100
FM210800 VRB06KT P6SM BKN100
FM211400 14010KT P6SM BKN060


Example: see airport list